sensor_id;sensor_type;location;lat;lon;timestamp;temperature;humidity
55369;DHT22;41247;49.736;8.752;2023-03-23T00:02:46;13.10;99.90
55369;DHT22;41247;49.736;8.752;2023-03-23T00:06:27;13.00;99.90
55369;DHT22;41247;49.736;8.752;2023-03-23T00:10:08;13.10;99.90
55369;DHT22;41247;49.736;8.752;2023-03-23T00:13:50;13.10;99.90
55369;DHT22;41247;49.736;8.752;2023-03-23T00:17:31;13.10;99.90
55369;DHT22;41247;49.736;8.752;2023-03-23T00:21:13;13.10;99.90
55369;DHT22;41247;49.736;8.752;2023-03-23T00:24:54;13.00;99.90
55369;DHT22;41247;49.736;8.752;2023-03-23T00:28:35;13.00;99.90
55369;DHT22;41247;49.736;8.752;2023-03-23T00:32:16;13.00;99.90
55369;DHT22;41247;49.736;8.752;2023-03-23T00:35:56;13.00;99.90
55369;DHT22;41247;49.736;8.752;2023-03-23T00:39:38;13.10;99.90
55369;DHT22;41247;49.736;8.752;2023-03-23T00:43:20;13.10;99.90
55369;DHT22;41247;49.736;8.752;2023-03-23T00:47:01;13.10;99.90
55369;DHT22;41247;49.736;8.752;2023-03-23T00:50:42;13.10;99.90
55369;DHT22;41247;49.736;8.752;2023-03-23T00:54:24;13.10;99.90
55369;DHT22;41247;49.736;8.752;2023-03-23T00:58:05;13.10;99.90
55369;DHT22;41247;49.736;8.752;2023-03-23T01:01:46;13.20;99.90
55369;DHT22;41247;49.736;8.752;2023-03-23T01:05:27;13.10;99.90
55369;DHT22;41247;49.736;8.752;2023-03-23T01:09:10;13.10;99.90
55369;DHT22;41247;49.736;8.752;2023-03-23T01:12:53;13.10;99.90
55369;DHT22;41247;49.736;8.752;2023-03-23T01:16:34;13.00;99.90
55369;DHT22;41247;49.736;8.752;2023-03-23T01:20:15;13.00;99.90
55369;DHT22;41247;49.736;8.752;2023-03-23T01:23:56;13.10;99.90
55369;DHT22;41247;49.736;8.752;2023-03-23T01:27:37;13.10;99.90
55369;DHT22;41247;49.736;8.752;2023-03-23T01:31:21;13.20;99.90
55369;DHT22;41247;49.736;8.752;2023-03-23T01:35:03;13.20;99.90
55369;DHT22;41247;49.736;8.752;2023-03-23T01:38:45;13.20;99.90
55369;DHT22;41247;49.736;8.752;2023-03-23T01:42:33;13.30;99.90
55369;DHT22;41247;49.736;8.752;2023-03-23T01:46:14;13.20;99.90
55369;DHT22;41247;49.736;8.752;2023-03-23T01:49:55;13.20;99.90
55369;DHT22;41247;49.736;8.752;2023-03-23T01:53:43;13.30;99.90
55369;DHT22;41247;49.736;8.752;2023-03-23T01:57:26;13.20;99.90
55369;DHT22;41247;49.736;8.752;2023-03-23T02:01:10;13.20;99.90
55369;DHT22;41247;49.736;8.752;2023-03-23T02:04:55;13.20;99.90
55369;DHT22;41247;49.736;8.752;2023-03-23T02:08:40;13.20;99.90
55369;DHT22;41247;49.736;8.752;2023-03-23T02:12:21;13.10;99.90
55369;DHT22;41247;49.736;8.752;2023-03-23T02:37:11;12.90;99.90
55369;DHT22;41247;49.736;8.752;2023-03-23T02:40:56;12.90;99.90
55369;DHT22;41247;49.736;8.752;2023-03-23T02:44:42;12.90;99.90
55369;DHT22;41247;49.736;8.752;2023-03-23T02:48:28;13.00;99.90
55369;DHT22;41247;49.736;8.752;2023-03-23T02:52:12;12.90;99.90
55369;DHT22;41247;49.736;8.752;2023-03-23T02:55:57;12.90;99.90
55369;DHT22;41247;49.736;8.752;2023-03-23T02:59:39;12.80;99.90
55369;DHT22;41247;49.736;8.752;2023-03-23T03:03:23;12.80;99.90
55369;DHT22;41247;49.736;8.752;2023-03-23T03:11:08;12.80;99.90
55369;DHT22;41247;49.736;8.752;2023-03-23T03:19:22;12.80;99.90
55369;DHT22;41247;49.736;8.752;2023-03-23T03:23:07;12.90;99.90
55369;DHT22;41247;49.736;8.752;2023-03-23T03:26:51;12.90;99.90
55369;DHT22;41247;49.736;8.752;2023-03-23T03:30:35;12.90;99.90
55369;DHT22;41247;49.736;8.752;2023-03-23T03:34:17;12.90;99.90
55369;DHT22;41247;49.736;8.752;2023-03-23T03:38:05;13.00;99.90
55369;DHT22;41247;49.736;8.752;2023-03-23T03:41:48;13.00;99.90
55369;DHT22;41247;49.736;8.752;2023-03-23T03:45:28;13.00;99.90
55369;DHT22;41247;49.736;8.752;2023-03-23T03:49:10;13.10;99.90
55369;DHT22;41247;49.736;8.752;2023-03-23T03:52:51;13.10;99.90
55369;DHT22;41247;49.736;8.752;2023-03-23T03:56:32;13.20;99.90
55369;DHT22;41247;49.736;8.752;2023-03-23T04:00:13;13.20;99.90
55369;DHT22;41247;49.736;8.752;2023-03-23T04:03:54;13.20;99.90
55369;DHT22;41247;49.736;8.752;2023-03-23T04:07:36;13.20;99.90
55369;DHT22;41247;49.736;8.752;2023-03-23T04:11:16;13.20;99.90
55369;DHT22;41247;49.736;8.752;2023-03-23T04:14:57;13.30;99.90
55369;DHT22;41247;49.736;8.752;2023-03-23T04:18:38;13.30;99.90
55369;DHT22;41247;49.736;8.752;2023-03-23T04:22:19;13.30;99.90
55369;DHT22;41247;49.736;8.752;2023-03-23T04:26:00;13.30;99.90
55369;DHT22;41247;49.736;8.752;2023-03-23T04:29:41;13.30;99.90
55369;DHT22;41247;49.736;8.752;2023-03-23T04:33:23;13.30;99.90
55369;DHT22;41247;49.736;8.752;2023-03-23T04:37:05;13.30;99.90
55369;DHT22;41247;49.736;8.752;2023-03-23T04:40:47;13.10;99.90
55369;DHT22;41247;49.736;8.752;2023-03-23T04:44:29;12.90;99.90
55369;DHT22;41247;49.736;8.752;2023-03-23T04:48:09;12.90;99.90
55369;DHT22;41247;49.736;8.752;2023-03-23T04:51:50;12.90;99.90
55369;DHT22;41247;49.736;8.752;2023-03-23T04:55:32;12.90;99.90
55369;DHT22;41247;49.736;8.752;2023-03-23T04:59:15;13.00;99.90
55369;DHT22;41247;49.736;8.752;2023-03-23T05:02:55;12.90;99.90
55369;DHT22;41247;49.736;8.752;2023-03-23T05:06:36;12.90;99.90
55369;DHT22;41247;49.736;8.752;2023-03-23T05:10:17;12.90;99.90
55369;DHT22;41247;49.736;8.752;2023-03-23T05:13:58;12.90;99.90
55369;DHT22;41247;49.736;8.752;2023-03-23T05:17:38;12.90;99.90
55369;DHT22;41247;49.736;8.752;2023-03-23T05:21:19;12.80;99.90
55369;DHT22;41247;49.736;8.752;2023-03-23T05:25:00;12.80;99.90
55369;DHT22;41247;49.736;8.752;2023-03-23T05:28:41;12.70;99.90
55369;DHT22;41247;49.736;8.752;2023-03-23T05:32:21;12.70;99.90
55369;DHT22;41247;49.736;8.752;2023-03-23T05:36:02;12.60;99.90
55369;DHT22;41247;49.736;8.752;2023-03-23T05:39:43;12.50;99.90
55369;DHT22;41247;49.736;8.752;2023-03-23T05:43:23;12.50;99.90
55369;DHT22;41247;49.736;8.752;2023-03-23T05:47:04;12.30;99.90
55369;DHT22;41247;49.736;8.752;2023-03-23T05:50:45;12.10;99.90
55369;DHT22;41247;49.736;8.752;2023-03-23T05:54:25;12.00;99.90
55369;DHT22;41247;49.736;8.752;2023-03-23T05:58:06;11.90;99.90
55369;DHT22;41247;49.736;8.752;2023-03-23T06:01:46;11.90;99.90
55369;DHT22;41247;49.736;8.752;2023-03-23T06:05:27;11.90;99.90
55369;DHT22;41247;49.736;8.752;2023-03-23T06:09:08;11.80;99.90
55369;DHT22;41247;49.736;8.752;2023-03-23T06:12:49;11.80;99.90
55369;DHT22;41247;49.736;8.752;2023-03-23T06:16:30;11.80;99.90
55369;DHT22;41247;49.736;8.752;2023-03-23T06:20:11;11.80;99.90
55369;DHT22;41247;49.736;8.752;2023-03-23T06:23:52;11.80;99.90
55369;DHT22;41247;49.736;8.752;2023-03-23T06:27:33;11.80;99.90
55369;DHT22;41247;49.736;8.752;2023-03-23T06:31:13;11.70;99.90
55369;DHT22;41247;49.736;8.752;2023-03-23T06:34:54;11.70;99.90
55369;DHT22;41247;49.736;8.752;2023-03-23T06:38:36;11.70;99.90
55369;DHT22;41247;49.736;8.752;2023-03-23T06:42:16;11.70;99.90
55369;DHT22;41247;49.736;8.752;2023-03-23T06:46:00;11.70;99.90
55369;DHT22;41247;49.736;8.752;2023-03-23T06:49:41;11.70;99.90
55369;DHT22;41247;49.736;8.752;2023-03-23T06:53:21;11.70;99.90
55369;DHT22;41247;49.736;8.752;2023-03-23T06:57:02;11.70;99.90
55369;DHT22;41247;49.736;8.752;2023-03-23T07:00:43;11.70;99.90
55369;DHT22;41247;49.736;8.752;2023-03-23T07:04:23;11.50;99.90
55369;DHT22;41247;49.736;8.752;2023-03-23T07:08:04;11.40;99.90
55369;DHT22;41247;49.736;8.752;2023-03-23T07:11:45;11.40;99.90
55369;DHT22;41247;49.736;8.752;2023-03-23T07:15:26;11.40;99.90
55369;DHT22;41247;49.736;8.752;2023-03-23T07:19:06;11.40;99.90
55369;DHT22;41247;49.736;8.752;2023-03-23T07:22:47;11.50;99.90
55369;DHT22;41247;49.736;8.752;2023-03-23T07:26:28;11.60;99.90
55369;DHT22;41247;49.736;8.752;2023-03-23T07:30:09;11.60;99.90
55369;DHT22;41247;49.736;8.752;2023-03-23T07:33:49;11.80;99.90
55369;DHT22;41247;49.736;8.752;2023-03-23T07:37:30;11.80;99.90
55369;DHT22;41247;49.736;8.752;2023-03-23T07:41:11;11.80;99.90
55369;DHT22;41247;49.736;8.752;2023-03-23T07:44:52;11.90;99.90
55369;DHT22;41247;49.736;8.752;2023-03-23T07:48:33;12.00;99.90
55369;DHT22;41247;49.736;8.752;2023-03-23T07:52:14;12.10;99.90
55369;DHT22;41247;49.736;8.752;2023-03-23T07:55:54;12.20;99.90
55369;DHT22;41247;49.736;8.752;2023-03-23T07:59:35;12.30;99.90
55369;DHT22;41247;49.736;8.752;2023-03-23T08:03:16;12.30;99.90
55369;DHT22;41247;49.736;8.752;2023-03-23T08:06:56;12.30;99.90
55369;DHT22;41247;49.736;8.752;2023-03-23T08:10:37;12.20;99.90
55369;DHT22;41247;49.736;8.752;2023-03-23T08:14:18;12.20;99.90
55369;DHT22;41247;49.736;8.752;2023-03-23T08:17:58;12.30;99.90
55369;DHT22;41247;49.736;8.752;2023-03-23T08:21:39;12.30;99.90
55369;DHT22;41247;49.736;8.752;2023-03-23T08:25:20;12.20;99.90
55369;DHT22;41247;49.736;8.752;2023-03-23T08:29:01;12.10;99.90
55369;DHT22;41247;49.736;8.752;2023-03-23T08:32:42;12.10;99.90
55369;DHT22;41247;49.736;8.752;2023-03-23T08:36:23;12.00;99.90
55369;DHT22;41247;49.736;8.752;2023-03-23T08:40:05;12.00;99.90
55369;DHT22;41247;49.736;8.752;2023-03-23T08:43:46;11.90;99.90
55369;DHT22;41247;49.736;8.752;2023-03-23T08:47:27;11.80;99.90
55369;DHT22;41247;49.736;8.752;2023-03-23T08:51:08;11.80;99.90
55369;DHT22;41247;49.736;8.752;2023-03-23T08:54:48;11.80;99.90
55369;DHT22;41247;49.736;8.752;2023-03-23T08:58:29;11.80;99.90
55369;DHT22;41247;49.736;8.752;2023-03-23T09:02:11;11.80;99.90
55369;DHT22;41247;49.736;8.752;2023-03-23T09:05:51;11.80;99.90
55369;DHT22;41247;49.736;8.752;2023-03-23T09:09:32;11.70;99.90
55369;DHT22;41247;49.736;8.752;2023-03-23T09:13:13;11.50;99.90
55369;DHT22;41247;49.736;8.752;2023-03-23T09:16:53;11.30;99.90
55369;DHT22;41247;49.736;8.752;2023-03-23T09:20:34;11.30;99.90
55369;DHT22;41247;49.736;8.752;2023-03-23T09:24:15;11.30;99.90
55369;DHT22;41247;49.736;8.752;2023-03-23T09:27:57;11.30;99.90
55369;DHT22;41247;49.736;8.752;2023-03-23T09:31:39;11.30;99.90
55369;DHT22;41247;49.736;8.752;2023-03-23T09:35:20;11.30;99.90
55369;DHT22;41247;49.736;8.752;2023-03-23T09:39:01;11.40;99.90
55369;DHT22;41247;49.736;8.752;2023-03-23T09:55:21;12.10;99.90
55369;DHT22;41247;49.736;8.752;2023-03-23T10:03:17;12.90;99.90
55369;DHT22;41247;49.736;8.752;2023-03-23T10:07:09;13.20;99.90
55369;DHT22;41247;49.736;8.752;2023-03-23T10:11:16;13.30;99.90
55369;DHT22;41247;49.736;8.752;2023-03-23T10:15:23;13.30;99.90
55369;DHT22;41247;49.736;8.752;2023-03-23T10:19:20;13.40;99.90
55369;DHT22;41247;49.736;8.752;2023-03-23T10:27:24;13.40;99.90
55369;DHT22;41247;49.736;8.752;2023-03-23T10:31:13;13.30;99.90
55369;DHT22;41247;49.736;8.752;2023-03-23T10:35:00;13.30;99.90
55369;DHT22;41247;49.736;8.752;2023-03-23T10:38:49;13.10;99.90
55369;DHT22;41247;49.736;8.752;2023-03-23T10:42:34;13.20;99.90
55369;DHT22;41247;49.736;8.752;2023-03-23T10:50:35;13.20;99.90
55369;DHT22;41247;49.736;8.752;2023-03-23T10:54:31;13.00;99.90
55369;DHT22;41247;49.736;8.752;2023-03-23T10:58:25;12.80;99.90
55369;DHT22;41247;49.736;8.752;2023-03-23T11:02:16;12.60;99.90
55369;DHT22;41247;49.736;8.752;2023-03-23T11:06:03;12.50;99.90
55369;DHT22;41247;49.736;8.752;2023-03-23T11:09:56;12.40;99.90
55369;DHT22;41247;49.736;8.752;2023-03-23T11:13:41;12.30;99.90
55369;DHT22;41247;49.736;8.752;2023-03-23T11:17:25;12.30;99.90
55369;DHT22;41247;49.736;8.752;2023-03-23T11:21:08;12.20;99.90
55369;DHT22;41247;49.736;8.752;2023-03-23T11:24:59;12.20;99.90
55369;DHT22;41247;49.736;8.752;2023-03-23T11:32:43;12.20;99.90
55369;DHT22;41247;49.736;8.752;2023-03-23T11:36:33;12.20;99.90
55369;DHT22;41247;49.736;8.752;2023-03-23T11:40:21;11.80;99.90
55369;DHT22;41247;49.736;8.752;2023-03-23T11:44:10;11.60;99.90
55369;DHT22;41247;49.736;8.752;2023-03-23T11:48:20;11.60;99.90
55369;DHT22;41247;49.736;8.752;2023-03-23T11:52:13;11.60;99.90
55369;DHT22;41247;49.736;8.752;2023-03-23T12:00:19;12.10;99.90
55369;DHT22;41247;49.736;8.752;2023-03-23T12:09:02;12.10;99.90
55369;DHT22;41247;49.736;8.752;2023-03-23T12:17:29;11.90;99.90
55369;DHT22;41247;49.736;8.752;2023-03-23T12:41:17;12.60;99.90
55369;DHT22;41247;49.736;8.752;2023-03-23T12:48:59;13.30;99.90
55369;DHT22;41247;49.736;8.752;2023-03-23T12:56:46;13.50;99.90
55369;DHT22;41247;49.736;8.752;2023-03-23T13:05:09;13.80;99.90
55369;DHT22;41247;49.736;8.752;2023-03-23T13:13:17;13.50;99.90
55369;DHT22;41247;49.736;8.752;2023-03-23T13:17:22;13.40;99.90
55369;DHT22;41247;49.736;8.752;2023-03-23T13:21:33;13.30;99.90
55369;DHT22;41247;49.736;8.752;2023-03-23T13:25:30;13.10;99.90
55369;DHT22;41247;49.736;8.752;2023-03-23T13:29:20;12.90;99.90
55369;DHT22;41247;49.736;8.752;2023-03-23T13:33:04;12.80;99.90
55369;DHT22;41247;49.736;8.752;2023-03-23T13:36:52;12.80;99.90
55369;DHT22;41247;49.736;8.752;2023-03-23T13:40:34;12.80;99.90
55369;DHT22;41247;49.736;8.752;2023-03-23T13:44:23;12.70;99.90
55369;DHT22;41247;49.736;8.752;2023-03-23T13:48:22;12.70;99.90
55369;DHT22;41247;49.736;8.752;2023-03-23T13:52:38;12.70;99.90
55369;DHT22;41247;49.736;8.752;2023-03-23T14:04:49;12.80;99.90
55369;DHT22;41247;49.736;8.752;2023-03-23T14:12:29;12.80;99.90
55369;DHT22;41247;49.736;8.752;2023-03-23T14:16:40;12.90;99.90
55369;DHT22;41247;49.736;8.752;2023-03-23T14:20:30;12.80;99.90
55369;DHT22;41247;49.736;8.752;2023-03-23T14:24:17;12.80;99.90
55369;DHT22;41247;49.736;8.752;2023-03-23T14:28:01;12.80;99.90
55369;DHT22;41247;49.736;8.752;2023-03-23T14:31:41;12.80;99.90
55369;DHT22;41247;49.736;8.752;2023-03-23T14:35:27;12.90;99.90
55369;DHT22;41247;49.736;8.752;2023-03-23T14:39:23;13.00;99.90
55369;DHT22;41247;49.736;8.752;2023-03-23T14:43:05;13.10;99.90
55369;DHT22;41247;49.736;8.752;2023-03-23T14:46:46;13.20;99.90
55369;DHT22;41247;49.736;8.752;2023-03-23T14:54:15;13.40;99.90
55369;DHT22;41247;49.736;8.752;2023-03-23T14:58:06;13.40;99.90
55369;DHT22;41247;49.736;8.752;2023-03-23T15:01:50;13.40;99.90
55369;DHT22;41247;49.736;8.752;2023-03-23T15:05:37;13.40;99.90
55369;DHT22;41247;49.736;8.752;2023-03-23T15:09:23;13.50;99.90
55369;DHT22;41247;49.736;8.752;2023-03-23T15:13:04;13.50;99.90
55369;DHT22;41247;49.736;8.752;2023-03-23T15:16:47;13.50;99.90
55369;DHT22;41247;49.736;8.752;2023-03-23T15:20:30;13.50;99.90
55369;DHT22;41247;49.736;8.752;2023-03-23T15:24:33;13.40;99.90
55369;DHT22;41247;49.736;8.752;2023-03-23T15:28:19;13.30;99.90
55369;DHT22;41247;49.736;8.752;2023-03-23T15:32:01;13.20;99.90
55369;DHT22;41247;49.736;8.752;2023-03-23T15:35:47;13.30;99.90
55369;DHT22;41247;49.736;8.752;2023-03-23T15:39:29;13.30;99.90
55369;DHT22;41247;49.736;8.752;2023-03-23T15:43:19;13.30;99.90
55369;DHT22;41247;49.736;8.752;2023-03-23T15:47:12;13.30;99.90
55369;DHT22;41247;49.736;8.752;2023-03-23T15:50:55;13.20;99.90
55369;DHT22;41247;49.736;8.752;2023-03-23T15:54:36;13.10;99.90
55369;DHT22;41247;49.736;8.752;2023-03-23T15:58:17;13.00;99.90
55369;DHT22;41247;49.736;8.752;2023-03-23T16:01:57;12.90;99.90
55369;DHT22;41247;49.736;8.752;2023-03-23T16:05:38;12.80;99.90
55369;DHT22;41247;49.736;8.752;2023-03-23T16:09:19;12.80;99.90
55369;DHT22;41247;49.736;8.752;2023-03-23T16:13:00;12.80;99.90
55369;DHT22;41247;49.736;8.752;2023-03-23T16:16:45;12.70;99.90
55369;DHT22;41247;49.736;8.752;2023-03-23T16:20:29;12.70;99.90
55369;DHT22;41247;49.736;8.752;2023-03-23T16:24:10;12.70;99.90
55369;DHT22;41247;49.736;8.752;2023-03-23T16:27:51;12.70;99.90
55369;DHT22;41247;49.736;8.752;2023-03-23T16:31:31;12.60;99.90
55369;DHT22;41247;49.736;8.752;2023-03-23T16:35:13;12.60;99.90
55369;DHT22;41247;49.736;8.752;2023-03-23T16:38:55;12.50;99.90
55369;DHT22;41247;49.736;8.752;2023-03-23T16:42:35;12.50;99.90
55369;DHT22;41247;49.736;8.752;2023-03-23T16:46:16;12.50;99.90
55369;DHT22;41247;49.736;8.752;2023-03-23T16:49:56;12.40;99.90
55369;DHT22;41247;49.736;8.752;2023-03-23T16:53:37;12.40;99.90
55369;DHT22;41247;49.736;8.752;2023-03-23T16:57:18;12.40;99.90
55369;DHT22;41247;49.736;8.752;2023-03-23T17:01:00;12.30;99.90
55369;DHT22;41247;49.736;8.752;2023-03-23T17:04:45;12.30;99.90
55369;DHT22;41247;49.736;8.752;2023-03-23T17:08:26;12.30;99.90
55369;DHT22;41247;49.736;8.752;2023-03-23T17:12:07;12.20;99.90
55369;DHT22;41247;49.736;8.752;2023-03-23T17:15:51;12.20;99.90
55369;DHT22;41247;49.736;8.752;2023-03-23T17:19:33;12.20;99.90
55369;DHT22;41247;49.736;8.752;2023-03-23T17:23:14;12.20;99.90
55369;DHT22;41247;49.736;8.752;2023-03-23T17:26:54;12.10;99.90
55369;DHT22;41247;49.736;8.752;2023-03-23T17:30:39;12.10;99.90
55369;DHT22;41247;49.736;8.752;2023-03-23T17:34:20;12.10;99.90
55369;DHT22;41247;49.736;8.752;2023-03-23T17:38:01;12.10;99.90
55369;DHT22;41247;49.736;8.752;2023-03-23T17:41:41;12.10;99.90
55369;DHT22;41247;49.736;8.752;2023-03-23T17:45:22;12.10;99.90
55369;DHT22;41247;49.736;8.752;2023-03-23T17:49:02;12.10;99.90
55369;DHT22;41247;49.736;8.752;2023-03-23T17:52:43;12.10;99.90
55369;DHT22;41247;49.736;8.752;2023-03-23T17:56:24;12.10;99.90
55369;DHT22;41247;49.736;8.752;2023-03-23T18:00:05;12.10;99.90
55369;DHT22;41247;49.736;8.752;2023-03-23T18:03:46;12.10;99.90
55369;DHT22;41247;49.736;8.752;2023-03-23T18:07:27;12.10;99.90
55369;DHT22;41247;49.736;8.752;2023-03-23T18:11:07;12.10;99.90
55369;DHT22;41247;49.736;8.752;2023-03-23T18:14:48;12.10;99.90
55369;DHT22;41247;49.736;8.752;2023-03-23T18:18:29;12.10;99.90
55369;DHT22;41247;49.736;8.752;2023-03-23T18:22:10;12.10;99.90
55369;DHT22;41247;49.736;8.752;2023-03-23T18:25:51;12.10;99.90
55369;DHT22;41247;49.736;8.752;2023-03-23T18:29:32;12.10;99.90
55369;DHT22;41247;49.736;8.752;2023-03-23T18:33:12;12.10;99.90
55369;DHT22;41247;49.736;8.752;2023-03-23T18:36:53;12.10;99.90
55369;DHT22;41247;49.736;8.752;2023-03-23T18:40:33;12.00;99.90
55369;DHT22;41247;49.736;8.752;2023-03-23T18:44:14;12.00;99.90
55369;DHT22;41247;49.736;8.752;2023-03-23T18:47:55;12.00;99.90
55369;DHT22;41247;49.736;8.752;2023-03-23T18:51:36;12.00;99.90
55369;DHT22;41247;49.736;8.752;2023-03-23T18:55:17;12.00;99.90
55369;DHT22;41247;49.736;8.752;2023-03-23T18:58:57;12.00;99.90
55369;DHT22;41247;49.736;8.752;2023-03-23T19:02:40;12.00;99.90
55369;DHT22;41247;49.736;8.752;2023-03-23T19:06:25;12.00;99.90
55369;DHT22;41247;49.736;8.752;2023-03-23T19:10:06;12.00;99.90
55369;DHT22;41247;49.736;8.752;2023-03-23T19:13:47;11.90;99.90
55369;DHT22;41247;49.736;8.752;2023-03-23T19:17:30;11.90;99.90
55369;DHT22;41247;49.736;8.752;2023-03-23T19:21:11;11.90;99.90
55369;DHT22;41247;49.736;8.752;2023-03-23T19:24:51;11.90;99.90
55369;DHT22;41247;49.736;8.752;2023-03-23T19:28:32;11.90;99.90
55369;DHT22;41247;49.736;8.752;2023-03-23T19:32:12;12.00;99.90
55369;DHT22;41247;49.736;8.752;2023-03-23T19:35:53;12.00;99.90
55369;DHT22;41247;49.736;8.752;2023-03-23T19:39:34;12.00;99.90
55369;DHT22;41247;49.736;8.752;2023-03-23T19:43:14;12.00;99.90
55369;DHT22;41247;49.736;8.752;2023-03-23T19:46:55;12.00;99.90
55369;DHT22;41247;49.736;8.752;2023-03-23T19:50:36;12.10;99.90
55369;DHT22;41247;49.736;8.752;2023-03-23T19:54:16;12.20;99.90
55369;DHT22;41247;49.736;8.752;2023-03-23T19:57:57;12.20;99.90
55369;DHT22;41247;49.736;8.752;2023-03-23T20:01:38;12.30;99.90
55369;DHT22;41247;49.736;8.752;2023-03-23T20:05:18;12.40;99.90
55369;DHT22;41247;49.736;8.752;2023-03-23T20:08:59;12.50;99.90
55369;DHT22;41247;49.736;8.752;2023-03-23T20:12:40;12.50;99.90
55369;DHT22;41247;49.736;8.752;2023-03-23T20:16:20;12.60;99.90
55369;DHT22;41247;49.736;8.752;2023-03-23T20:20:01;12.70;99.90
55369;DHT22;41247;49.736;8.752;2023-03-23T20:23:42;12.70;99.90
55369;DHT22;41247;49.736;8.752;2023-03-23T20:27:23;12.70;99.90
55369;DHT22;41247;49.736;8.752;2023-03-23T20:31:09;12.70;99.90
55369;DHT22;41247;49.736;8.752;2023-03-23T20:34:50;12.80;99.90
55369;DHT22;41247;49.736;8.752;2023-03-23T20:38:31;12.80;99.90
55369;DHT22;41247;49.736;8.752;2023-03-23T20:42:11;12.90;99.90
55369;DHT22;41247;49.736;8.752;2023-03-23T20:45:52;12.90;99.90
55369;DHT22;41247;49.736;8.752;2023-03-23T20:49:34;13.00;99.90
55369;DHT22;41247;49.736;8.752;2023-03-23T20:53:16;13.10;99.90
55369;DHT22;41247;49.736;8.752;2023-03-23T20:56:56;13.20;99.90
55369;DHT22;41247;49.736;8.752;2023-03-23T21:00:39;13.20;99.90
55369;DHT22;41247;49.736;8.752;2023-03-23T21:04:22;13.30;99.90
55369;DHT22;41247;49.736;8.752;2023-03-23T21:08:04;13.40;99.90
55369;DHT22;41247;49.736;8.752;2023-03-23T21:11:45;13.40;99.90
55369;DHT22;41247;49.736;8.752;2023-03-23T21:15:25;13.40;99.90
55369;DHT22;41247;49.736;8.752;2023-03-23T21:19:06;13.40;99.90
55369;DHT22;41247;49.736;8.752;2023-03-23T21:22:47;13.40;99.90
55369;DHT22;41247;49.736;8.752;2023-03-23T21:26:28;13.40;99.90
55369;DHT22;41247;49.736;8.752;2023-03-23T21:30:09;13.50;99.90
55369;DHT22;41247;49.736;8.752;2023-03-23T21:33:50;13.60;99.90
55369;DHT22;41247;49.736;8.752;2023-03-23T21:37:33;13.60;99.90
55369;DHT22;41247;49.736;8.752;2023-03-23T21:41:13;13.60;99.90
55369;DHT22;41247;49.736;8.752;2023-03-23T21:44:55;13.60;99.90
55369;DHT22;41247;49.736;8.752;2023-03-23T21:48:36;13.70;99.90
55369;DHT22;41247;49.736;8.752;2023-03-23T21:52:17;13.80;99.90
55369;DHT22;41247;49.736;8.752;2023-03-23T21:55:58;13.70;99.90
55369;DHT22;41247;49.736;8.752;2023-03-23T21:59:38;13.70;99.90
55369;DHT22;41247;49.736;8.752;2023-03-23T22:03:20;13.70;99.90
55369;DHT22;41247;49.736;8.752;2023-03-23T22:07:02;13.70;99.90
55369;DHT22;41247;49.736;8.752;2023-03-23T22:10:42;13.70;99.90
55369;DHT22;41247;49.736;8.752;2023-03-23T22:14:23;13.60;99.90
55369;DHT22;41247;49.736;8.752;2023-03-23T22:18:04;13.60;99.90
55369;DHT22;41247;49.736;8.752;2023-03-23T22:21:44;13.60;99.90
55369;DHT22;41247;49.736;8.752;2023-03-23T22:25:25;13.60;99.90
55369;DHT22;41247;49.736;8.752;2023-03-23T22:29:06;13.70;99.90
55369;DHT22;41247;49.736;8.752;2023-03-23T22:32:47;13.60;99.90
55369;DHT22;41247;49.736;8.752;2023-03-23T22:36:29;13.60;99.90
55369;DHT22;41247;49.736;8.752;2023-03-23T22:40:10;13.60;99.90
55369;DHT22;41247;49.736;8.752;2023-03-23T22:43:51;13.60;99.90
55369;DHT22;41247;49.736;8.752;2023-03-23T22:47:32;13.60;99.90
55369;DHT22;41247;49.736;8.752;2023-03-23T22:51:14;13.60;99.90
55369;DHT22;41247;49.736;8.752;2023-03-23T22:54:57;13.60;99.90
55369;DHT22;41247;49.736;8.752;2023-03-23T22:58:37;13.50;99.90
55369;DHT22;41247;49.736;8.752;2023-03-23T23:02:18;13.40;99.90
55369;DHT22;41247;49.736;8.752;2023-03-23T23:05:59;13.40;99.90
55369;DHT22;41247;49.736;8.752;2023-03-23T23:09:41;13.20;99.90
55369;DHT22;41247;49.736;8.752;2023-03-23T23:13:23;13.00;99.90
55369;DHT22;41247;49.736;8.752;2023-03-23T23:17:04;12.90;99.90
55369;DHT22;41247;49.736;8.752;2023-03-23T23:20:51;12.70;99.90
55369;DHT22;41247;49.736;8.752;2023-03-23T23:24:33;12.70;99.90
55369;DHT22;41247;49.736;8.752;2023-03-23T23:28:14;12.60;99.90
55369;DHT22;41247;49.736;8.752;2023-03-23T23:31:55;12.60;99.90
55369;DHT22;41247;49.736;8.752;2023-03-23T23:35:36;12.50;99.90
55369;DHT22;41247;49.736;8.752;2023-03-23T23:39:17;12.60;99.90
55369;DHT22;41247;49.736;8.752;2023-03-23T23:42:58;12.60;99.90
55369;DHT22;41247;49.736;8.752;2023-03-23T23:46:39;12.50;99.90
55369;DHT22;41247;49.736;8.752;2023-03-23T23:50:19;12.40;99.90
55369;DHT22;41247;49.736;8.752;2023-03-23T23:54:00;12.30;99.90
55369;DHT22;41247;49.736;8.752;2023-03-23T23:57:47;12.30;99.90
